createdAt,value
2022-08-31T00:00:04.862Z,1020.48
2022-08-31T00:04:57.397Z,1020.46
2022-08-31T00:09:49.795Z,1020.44
2022-08-31T00:14:42.032Z,1020.41
2022-08-31T00:19:34.479Z,1020.45
2022-08-31T00:24:26.756Z,1020.39
2022-08-31T00:29:19.365Z,1020.41
2022-08-31T00:34:11.922Z,1020.47
2022-08-31T00:39:04.500Z,1020.58
2022-08-31T00:43:57.130Z,1020.56
2022-08-31T00:48:49.596Z,1020.54
2022-08-31T00:53:42.107Z,1020.54
2022-08-31T00:58:34.630Z,1020.49
2022-08-31T01:03:29.300Z,1020.51
2022-08-31T01:08:27.066Z,1020.53
2022-08-31T01:13:14.009Z,1020.5
2022-08-31T01:18:06.288Z,1020.54
2022-08-31T01:22:58.957Z,1020.54
2022-08-31T01:27:51.451Z,1020.52
2022-08-31T01:32:43.869Z,1020.52
2022-08-31T01:37:36.485Z,1020.48
2022-08-31T01:42:33.191Z,1020.45
2022-08-31T01:47:21.542Z,1020.49
2022-08-31T01:52:13.746Z,1020.49
2022-08-31T01:57:06.285Z,1020.45
2022-08-31T02:01:58.999Z,1020.45
2022-08-31T02:06:51.554Z,1020.45
2022-08-31T02:11:44.211Z,1020.44
2022-08-31T02:16:36.742Z,1020.47
2022-08-31T02:21:29.404Z,1020.52
2022-08-31T02:26:22.005Z,1020.49
2022-08-31T02:31:14.667Z,1020.45
2022-08-31T02:36:07.160Z,1020.45
2022-08-31T02:40:59.732Z,1020.47
2022-08-31T02:45:53.451Z,1020.48
2022-08-31T02:50:44.804Z,1020.44
2022-08-31T02:55:37.461Z,1020.43
2022-08-31T03:00:29.884Z,1020.39
2022-08-31T03:05:22.554Z,1020.35
2022-08-31T03:10:14.923Z,1020.38
2022-08-31T03:15:07.498Z,1020.36
2022-08-31T03:20:00.155Z,1020.32
2022-08-31T03:24:52.796Z,1020.24
2022-08-31T03:29:45.420Z,1020.18
2022-08-31T03:34:37.802Z,1020.24
2022-08-31T03:39:30.381Z,1020.4
2022-08-31T03:44:23.063Z,1020.39
2022-08-31T03:49:15.861Z,1020.45
2022-08-31T03:54:08.299Z,1020.46
2022-08-31T03:59:00.976Z,1020.4
2022-08-31T04:03:53.500Z,1020.43
2022-08-31T04:08:46.084Z,1020.5
2022-08-31T04:13:38.482Z,1020.53
2022-08-31T04:18:30.989Z,1020.62
2022-08-31T04:23:23.467Z,1020.62
2022-08-31T04:28:16.014Z,1020.6
2022-08-31T04:33:08.321Z,1020.59
2022-08-31T04:38:01.054Z,1020.57
2022-08-31T04:42:53.523Z,1020.53
2022-08-31T04:47:46.232Z,1020.54
2022-08-31T04:52:38.941Z,1020.53
2022-08-31T04:57:31.488Z,1020.58
2022-08-31T05:02:24.192Z,1020.7
2022-08-31T05:07:16.555Z,1020.74
2022-08-31T05:12:09.261Z,1020.73
2022-08-31T05:17:01.517Z,1020.78
2022-08-31T05:21:53.898Z,1020.81
2022-08-31T05:26:46.601Z,1020.89
2022-08-31T05:31:39.227Z,1020.91
2022-08-31T05:41:24.286Z,1021.05
2022-08-31T05:51:09.213Z,1021.2
2022-08-31T05:56:01.856Z,1021.16
2022-08-31T06:00:54.186Z,1021.25
2022-08-31T06:05:46.670Z,1021.3
2022-08-31T06:10:38.561Z,1021.4
2022-08-31T06:15:31.073Z,1021.45
2022-08-31T06:20:23.472Z,1021.48
2022-08-31T06:25:15.910Z,1021.6
2022-08-31T06:30:10.151Z,1021.54
2022-08-31T06:35:02.536Z,1021.58
2022-08-31T06:39:55.152Z,1021.61
2022-08-31T06:44:47.171Z,1021.73
2022-08-31T06:49:39.735Z,1021.7
2022-08-31T06:54:33.111Z,1021.77
2022-08-31T06:59:28.408Z,1021.84
2022-08-31T07:04:17.977Z,1021.86
2022-08-31T07:09:10.763Z,1021.79
2022-08-31T07:14:03.634Z,1021.83
2022-08-31T07:18:56.004Z,1021.84
2022-08-31T07:23:48.429Z,1021.89
2022-08-31T07:28:41.315Z,1021.92
2022-08-31T07:33:34.289Z,1021.93
2022-08-31T07:38:26.499Z,1021.98
2022-08-31T07:43:19.304Z,1021.98
2022-08-31T07:48:11.681Z,1021.95
2022-08-31T07:53:04.168Z,1021.97
2022-08-31T07:57:56.466Z,1022.01
2022-08-31T08:02:50.980Z,1022.07
2022-08-31T08:07:41.078Z,1022.05
2022-08-31T08:12:33.710Z,1022.09
2022-08-31T08:17:26.289Z,1022.09
2022-08-31T08:22:30.756Z,1022.04
2022-08-31T08:27:11.570Z,1022.09
2022-08-31T08:32:03.881Z,1022.15
2022-08-31T08:36:55.952Z,1022.08
2022-08-31T08:41:49.377Z,1022.07
2022-08-31T08:46:42.028Z,1022.06
2022-08-31T08:51:34.807Z,1022.12
2022-08-31T08:56:33.568Z,1022.1
2022-08-31T09:01:20.103Z,1022.17
2022-08-31T09:06:12.564Z,1022.19
2022-08-31T09:11:05.025Z,1022.19
2022-08-31T09:15:57.651Z,1022.16
2022-08-31T09:20:50.367Z,1022.15
2022-08-31T09:25:42.951Z,1022.1
2022-08-31T09:30:35.414Z,1022.09
2022-08-31T09:35:27.743Z,1022
2022-08-31T09:40:23.472Z,1021.99
2022-08-31T09:45:13.813Z,1021.97
2022-08-31T09:50:05.576Z,1022
2022-08-31T09:54:57.937Z,1021.96
2022-08-31T09:59:50.354Z,1021.99
2022-08-31T10:04:42.932Z,1021.9
2022-08-31T10:09:35.603Z,1021.91
2022-08-31T10:14:27.998Z,1021.85
2022-08-31T10:19:20.729Z,1021.86
2022-08-31T10:24:13.529Z,1021.9
2022-08-31T10:29:06.196Z,1021.95
2022-08-31T10:33:58.593Z,1021.85
2022-08-31T10:38:51.554Z,1021.87
2022-08-31T10:43:44.082Z,1021.86
2022-08-31T10:48:36.674Z,1021.86
2022-08-31T10:53:29.182Z,1021.77
2022-08-31T10:58:21.786Z,1021.8
2022-08-31T11:03:14.514Z,1021.77
2022-08-31T11:08:07.122Z,1021.76
2022-08-31T11:12:59.553Z,1021.73
2022-08-31T11:17:52.248Z,1021.69
2022-08-31T11:22:45.010Z,1021.68
2022-08-31T11:27:37.551Z,1021.73
2022-08-31T11:32:29.788Z,1021.57
2022-08-31T11:37:22.143Z,1021.55
2022-08-31T11:42:14.822Z,1021.53
2022-08-31T11:47:07.292Z,1021.5
2022-08-31T11:51:59.943Z,1021.45
2022-08-31T11:56:52.192Z,1021.38
2022-08-31T12:01:44.928Z,1021.43
2022-08-31T12:06:37.818Z,1021.43
2022-08-31T12:11:30.282Z,1021.42
2022-08-31T12:16:22.722Z,1021.37
2022-08-31T12:26:07.662Z,1021.42
2022-08-31T12:35:52.553Z,1021.34
2022-08-31T12:45:37.853Z,1021.28
2022-08-31T12:55:23.226Z,1021.36
2022-08-31T13:05:08.749Z,1021.29
2022-08-31T13:10:01.126Z,1021.29
2022-08-31T13:14:53.833Z,1021.22
2022-08-31T13:19:46.471Z,1021.27
2022-08-31T13:24:39.055Z,1021.17
2022-08-31T13:29:31.503Z,1021.16
2022-08-31T13:34:24.053Z,1021.09
2022-08-31T13:39:16.939Z,1021.1
2022-08-31T13:44:09.482Z,1021.06
2022-08-31T13:49:02.026Z,1021.07
2022-08-31T13:53:54.614Z,1021.03
2022-08-31T13:58:47.196Z,1020.95
2022-08-31T14:03:39.820Z,1020.96
2022-08-31T14:08:32.401Z,1020.94
2022-08-31T14:13:25.062Z,1020.92
2022-08-31T14:18:26.243Z,1020.88
2022-08-31T14:23:10.294Z,1020.89
2022-08-31T14:28:02.869Z,1020.88
2022-08-31T14:32:55.741Z,1020.83
2022-08-31T14:37:48.579Z,1020.82
2022-08-31T14:42:41.054Z,1020.81
2022-08-31T14:47:33.578Z,1020.74
2022-08-31T14:52:26.096Z,1020.69
2022-08-31T14:57:18.481Z,1020.65
2022-08-31T15:02:11.172Z,1020.66
2022-08-31T15:07:06.757Z,1020.62
2022-08-31T15:11:56.830Z,1020.62
2022-08-31T15:16:49.507Z,1020.65
2022-08-31T15:21:44.867Z,1020.7
2022-08-31T15:26:34.706Z,1020.69
2022-08-31T15:31:27.351Z,1020.63
2022-08-31T15:36:19.674Z,1020.65
2022-08-31T15:41:12.199Z,1020.63
2022-08-31T15:46:04.900Z,1020.64
2022-08-31T15:50:57.569Z,1020.6
2022-08-31T15:55:50.147Z,1020.61
2022-08-31T16:00:42.992Z,1020.56
2022-08-31T16:05:36.013Z,1020.5
2022-08-31T16:10:28.794Z,1020.52
2022-08-31T16:15:24.479Z,1020.47
2022-08-31T16:20:13.669Z,1020.42
2022-08-31T16:25:05.946Z,1020.46
2022-08-31T16:29:58.640Z,1020.49
2022-08-31T16:34:51.277Z,1020.49
2022-08-31T16:39:43.579Z,1020.47
2022-08-31T16:44:36.769Z,1020.5
2022-08-31T16:49:28.280Z,1020.5
2022-08-31T16:54:20.903Z,1020.56
2022-08-31T16:59:13.611Z,1020.5
2022-08-31T17:04:06.188Z,1020.54
2022-08-31T17:08:58.644Z,1020.55
2022-08-31T17:13:51.264Z,1020.58
2022-08-31T17:18:43.762Z,1020.6
2022-08-31T17:23:36.003Z,1020.63
2022-08-31T17:28:28.536Z,1020.61
2022-08-31T17:33:21.110Z,1020.59
2022-08-31T17:38:13.748Z,1020.62
2022-08-31T17:43:06.226Z,1020.68
2022-08-31T17:47:58.914Z,1020.7
2022-08-31T17:52:51.463Z,1020.75
2022-08-31T17:57:44.302Z,1020.76
2022-08-31T18:02:36.672Z,1020.78
2022-08-31T18:07:29.356Z,1020.84
2022-08-31T18:12:22.167Z,1020.92
2022-08-31T18:22:07.167Z,1021
2022-08-31T18:31:52.226Z,1021.09
2022-08-31T18:41:37.295Z,1021.12
2022-08-31T18:51:22.537Z,1021.15
2022-08-31T18:56:14.952Z,1021.21
2022-08-31T19:01:07.631Z,1021.21
2022-08-31T19:05:59.959Z,1021.27
2022-08-31T19:10:52.497Z,1021.29
2022-08-31T19:15:45.307Z,1021.28
2022-08-31T19:20:37.891Z,1021.26
2022-08-31T19:25:30.635Z,1021.27
2022-08-31T19:30:28.004Z,1021.33
2022-08-31T19:35:17.011Z,1021.33
2022-08-31T19:40:08.696Z,1021.33
2022-08-31T19:49:53.914Z,1021.29
2022-08-31T19:54:46.488Z,1021.35
2022-08-31T19:59:39.081Z,1021.31
2022-08-31T20:04:31.075Z,1021.32
2022-08-31T20:09:23.941Z,1021.33
2022-08-31T20:14:16.686Z,1021.35
2022-08-31T20:19:08.981Z,1021.36
2022-08-31T20:24:01.514Z,1021.36
2022-08-31T20:28:54.070Z,1021.3
2022-08-31T20:33:46.723Z,1021.33
2022-08-31T20:38:39.625Z,1021.3
2022-08-31T20:43:32.512Z,1021.35
2022-08-31T20:48:24.853Z,1021.37
2022-08-31T20:53:17.550Z,1021.42
2022-08-31T20:58:10.241Z,1021.45
2022-08-31T21:03:03.010Z,1021.44
2022-08-31T21:07:57.391Z,1021.49
2022-08-31T21:12:48.139Z,1021.44
2022-08-31T21:17:40.553Z,1021.41
2022-08-31T21:22:33.078Z,1021.42
2022-08-31T21:27:25.767Z,1021.43
2022-08-31T21:32:18.506Z,1021.45
2022-08-31T21:37:10.881Z,1021.48
2022-08-31T21:42:03.918Z,1021.46
2022-08-31T21:46:56.701Z,1021.44
2022-08-31T21:51:48.917Z,1021.41
2022-08-31T21:56:41.408Z,1021.39
2022-08-31T22:01:33.940Z,1021.39
2022-08-31T22:06:26.681Z,1021.4
2022-08-31T22:11:18.889Z,1021.43
2022-08-31T22:16:13.214Z,1021.48
2022-08-31T22:21:03.780Z,1021.46
2022-08-31T22:25:56.422Z,1021.38
2022-08-31T22:30:48.970Z,1021.38
2022-08-31T22:35:41.530Z,1021.31
2022-08-31T22:40:31.154Z,1021.35
2022-08-31T22:45:24.724Z,1021.32
2022-08-31T22:50:17.510Z,1021.32
2022-08-31T22:55:10.244Z,1021.39
2022-08-31T23:00:02.957Z,1021.45
2022-08-31T23:04:55.753Z,1021.45
2022-08-31T23:09:48.539Z,1021.41
2022-08-31T23:14:41.152Z,1021.33
2022-08-31T23:19:33.855Z,1021.33
2022-08-31T23:24:26.510Z,1021.28
2022-08-31T23:29:19.172Z,1021.19
2022-08-31T23:34:11.866Z,1021.16
2022-08-31T23:39:04.624Z,1021.11
2022-08-31T23:43:57.407Z,1021.06
2022-08-31T23:48:50.140Z,1021.04
2022-08-31T23:53:42.966Z,1021.06
2022-08-31T23:58:35.479Z,1021.08
